createdAt,value
2023-04-19T00:02:18.537Z,10.37
2023-04-19T00:11:29.820Z,9.17
2023-04-19T00:14:32.492Z,15.00
2023-04-19T00:17:35.558Z,10.50
2023-04-19T00:20:39.652Z,10.93
2023-04-19T00:23:42.300Z,12.93
2023-04-19T00:26:46.234Z,11.63
2023-04-19T00:29:48.806Z,11.87
2023-04-19T00:32:51.359Z,12.10
2023-04-19T00:35:53.989Z,12.87
2023-04-19T00:38:56.603Z,11.43
2023-04-19T00:42:01.283Z,12.40
2023-04-19T00:45:03.984Z,13.10
2023-04-19T00:48:07.012Z,12.90
2023-04-19T00:51:10.670Z,11.15
2023-04-19T00:54:13.708Z,10.10
2023-04-19T00:57:17.802Z,11.07
2023-04-19T01:00:20.909Z,13.13
2023-04-19T01:03:23.559Z,13.00
2023-04-19T01:06:27.852Z,12.63
2023-04-19T01:09:30.937Z,13.00
2023-04-19T01:12:34.998Z,12.00
2023-04-19T01:15:41.083Z,12.37
2023-04-19T01:18:43.583Z,12.27
2023-04-19T01:21:46.312Z,13.40
2023-04-19T01:24:50.350Z,13.13
2023-04-19T01:27:52.820Z,15.67
2023-04-19T01:30:55.443Z,14.37
2023-04-19T01:33:58.110Z,13.60
2023-04-19T01:37:00.881Z,15.13
2023-04-19T01:40:05.474Z,14.85
2023-04-19T01:43:08.292Z,12.53
2023-04-19T01:46:10.881Z,14.52
2023-04-19T01:49:13.460Z,14.93
2023-04-19T01:52:16.016Z,14.43
2023-04-19T01:55:20.185Z,14.37
2023-04-19T01:58:22.696Z,15.87
2023-04-19T02:01:25.583Z,13.87
2023-04-19T02:04:28.170Z,16.13
2023-04-19T02:07:30.680Z,16.13
2023-04-19T02:10:34.631Z,15.50
2023-04-19T02:13:37.286Z,14.97
2023-04-19T02:16:39.820Z,16.50
2023-04-19T02:19:42.525Z,17.23
2023-04-19T02:22:45.111Z,17.90
2023-04-19T02:25:48.989Z,17.53
2023-04-19T02:28:51.995Z,17.07
2023-04-19T02:31:54.565Z,16.50
2023-04-19T02:34:57.119Z,17.23
2023-04-19T02:38:00.270Z,16.63
2023-04-19T02:41:04.467Z,15.40
2023-04-19T02:44:07.203Z,15.93
2023-04-19T02:47:09.748Z,16.73
2023-04-19T02:50:12.275Z,17.90
2023-04-19T02:53:14.814Z,15.43
2023-04-19T02:56:18.843Z,15.37
2023-04-19T02:59:21.425Z,15.90
2023-04-19T03:02:24.409Z,17.10
2023-04-19T03:05:27.637Z,16.38
2023-04-19T03:08:30.530Z,15.60
2023-04-19T03:11:35.716Z,16.65
2023-04-19T03:14:38.482Z,17.37
2023-04-19T03:17:41.178Z,21.20
2023-04-19T03:20:43.863Z,16.35
2023-04-19T03:23:46.387Z,16.53
2023-04-19T03:26:50.516Z,17.30
2023-04-19T03:29:53.343Z,14.87
2023-04-19T03:32:55.909Z,17.35
2023-04-19T03:35:58.464Z,17.53
2023-04-19T03:39:00.979Z,18.00
2023-04-19T03:42:05.240Z,16.77
2023-04-19T03:45:08.614Z,19.60
2023-04-19T03:48:11.241Z,17.77
2023-04-19T03:51:15.854Z,16.27
2023-04-19T03:54:18.366Z,16.43
2023-04-19T03:57:22.426Z,21.53
2023-04-19T04:00:26.299Z,14.70
2023-04-19T04:03:28.984Z,20.20
2023-04-19T04:06:32.232Z,21.27
2023-04-19T04:09:35.044Z,22.45
2023-04-19T04:12:38.989Z,17.15
2023-04-19T04:15:42.924Z,19.87
2023-04-19T04:18:45.555Z,26.33
2023-04-19T04:21:49.155Z,22.13
2023-04-19T04:24:53.957Z,18.67
2023-04-19T04:27:57.980Z,24.23
2023-04-19T04:31:00.688Z,20.43
2023-04-19T04:34:03.471Z,19.85
2023-04-19T04:37:07.628Z,20.48
2023-04-19T04:40:11.657Z,22.37
2023-04-19T04:43:15.550Z,22.17
2023-04-19T04:46:18.338Z,20.47
2023-04-19T04:49:21.026Z,24.80
2023-04-19T04:52:23.655Z,21.33
2023-04-19T04:55:26.297Z,19.83
2023-04-19T04:58:30.404Z,20.23
2023-04-19T05:01:33.058Z,21.30
2023-04-19T05:04:35.859Z,23.23
2023-04-19T05:07:38.546Z,18.58
2023-04-19T05:10:41.199Z,17.97
2023-04-19T05:13:45.364Z,20.10
2023-04-19T05:16:48.128Z,17.83
2023-04-19T05:19:51.035Z,17.77
2023-04-19T05:22:58.287Z,19.35
2023-04-19T05:26:00.832Z,17.97
2023-04-19T05:29:04.944Z,18.43
2023-04-19T05:32:08.029Z,22.77
2023-04-19T05:35:11.449Z,19.35
2023-04-19T05:38:14.116Z,22.77
2023-04-19T05:41:16.932Z,23.57
2023-04-19T05:44:21.096Z,16.60
2023-04-19T05:47:24.171Z,22.67
2023-04-19T05:50:27.173Z,21.23
2023-04-19T05:53:29.782Z,17.17
2023-04-19T05:56:32.623Z,22.73
2023-04-19T05:59:36.718Z,19.52
2023-04-19T06:02:39.521Z,19.67
2023-04-19T06:05:42.565Z,16.33
2023-04-19T06:08:45.265Z,17.27
2023-04-19T06:11:51.170Z,16.67
2023-04-19T06:14:56.072Z,20.07
2023-04-19T06:17:59.984Z,16.20
2023-04-19T06:21:02.693Z,16.93
2023-04-19T06:24:06.894Z,20.07
2023-04-19T06:27:09.499Z,20.67
2023-04-19T06:30:14.030Z,19.30
2023-04-19T06:33:16.692Z,15.43
2023-04-19T06:36:19.470Z,17.13
2023-04-19T06:39:22.197Z,18.35
2023-04-19T06:42:25.942Z,17.17
2023-04-19T06:45:30.004Z,16.60
2023-04-19T06:48:32.877Z,17.63
2023-04-19T06:51:36.011Z,17.70
2023-04-19T06:54:38.852Z,19.15
2023-04-19T06:57:42.486Z,17.77
2023-04-19T07:03:49.159Z,17.88
2023-04-19T07:06:51.930Z,14.40
2023-04-19T07:09:54.499Z,13.83
2023-04-19T07:12:57.231Z,15.85
2023-04-19T07:16:01.255Z,17.17
2023-04-19T07:19:03.921Z,15.97
2023-04-19T07:22:07.354Z,17.20
2023-04-19T07:25:11.011Z,15.80
2023-04-19T07:28:13.880Z,19.30
2023-04-19T07:31:18.404Z,15.23
2023-04-19T07:34:21.059Z,13.30
2023-04-19T07:37:23.810Z,14.93
2023-04-19T07:40:26.590Z,16.55
2023-04-19T07:43:30.960Z,16.35
2023-04-19T07:46:35.033Z,12.97
2023-04-19T07:49:38.490Z,15.73
2023-04-19T07:52:41.197Z,16.60
2023-04-19T07:55:43.718Z,16.30
2023-04-19T07:58:50.774Z,14.07
2023-04-19T08:02:00.965Z,13.55
2023-04-19T08:05:04.341Z,14.13
2023-04-19T08:08:07.042Z,16.25
2023-04-19T08:11:09.746Z,15.70
2023-04-19T08:14:22.181Z,12.67
2023-04-19T08:17:41.877Z,12.60
2023-04-19T08:20:46.553Z,13.70
2023-04-19T08:23:49.812Z,13.93
2023-04-19T08:26:54.724Z,10.47
2023-04-19T08:33:01.825Z,10.70
2023-04-19T08:36:05.051Z,9.50
2023-04-19T08:39:14.721Z,9.77
2023-04-19T08:42:33.143Z,8.87
2023-04-19T08:45:39.183Z,10.43
2023-04-19T08:48:45.102Z,11.77
2023-04-19T08:51:49.352Z,11.13
2023-04-19T08:54:52.533Z,10.97
2023-04-19T08:57:55.254Z,8.95
2023-04-19T09:00:59.788Z,10.20
2023-04-19T09:04:21.697Z,9.13
2023-04-19T09:07:29.615Z,10.13
2023-04-19T09:10:32.481Z,10.30
2023-04-19T09:13:36.857Z,11.55
2023-04-19T09:16:39.545Z,8.27
2023-04-19T09:19:50.541Z,11.57
2023-04-19T09:23:04.851Z,9.70
2023-04-19T09:26:22.682Z,9.97
2023-04-19T09:29:26.994Z,13.13
2023-04-19T09:35:44.368Z,10.93
2023-04-19T09:38:48.747Z,14.53
2023-04-19T09:41:52.765Z,14.93
2023-04-19T09:48:07.420Z,10.77
2023-04-19T09:51:14.458Z,9.90
2023-04-19T09:54:18.727Z,9.90
2023-04-19T09:57:21.359Z,11.30
2023-04-19T10:00:24.512Z,10.80
2023-04-19T10:03:30.398Z,9.88
2023-04-19T10:06:58.443Z,10.20
2023-04-19T10:10:11.706Z,11.03
2023-04-19T10:13:25.766Z,12.93
2023-04-19T10:16:31.581Z,12.20
2023-04-19T10:19:36.207Z,9.60
2023-04-19T10:22:40.393Z,8.93
2023-04-19T10:25:47.266Z,10.73
2023-04-19T10:28:49.885Z,10.00
2023-04-19T10:31:52.523Z,7.35
2023-04-19T10:34:55.352Z,8.65
2023-04-19T10:38:07.820Z,8.57
2023-04-19T10:41:16.511Z,9.10
2023-04-19T10:44:20.544Z,11.17
2023-04-19T10:47:44.481Z,8.27
2023-04-19T10:50:59.330Z,11.90
2023-04-19T10:54:04.521Z,9.23
2023-04-19T10:57:08.321Z,11.93
2023-04-19T11:00:21.114Z,13.80
2023-04-19T11:03:54.782Z,10.23
2023-04-19T11:07:02.634Z,9.13
2023-04-19T11:10:07.676Z,11.47
2023-04-19T11:13:10.245Z,13.40
2023-04-19T11:16:13.055Z,10.82
2023-04-19T11:19:16.673Z,9.40
2023-04-19T11:22:19.577Z,9.43
2023-04-19T11:25:23.687Z,11.02
2023-04-19T11:28:26.354Z,9.17
2023-04-19T11:31:29.423Z,11.43
2023-04-19T11:34:36.736Z,11.70
2023-04-19T11:37:40.550Z,12.00
2023-04-19T11:40:44.505Z,10.90
2023-04-19T11:43:48.470Z,11.83
2023-04-19T11:47:01.410Z,17.00
2023-04-19T11:50:33.145Z,18.73
2023-04-19T11:53:35.841Z,14.83
2023-04-19T11:56:58.955Z,13.32
2023-04-19T12:00:08.453Z,15.57
2023-04-19T12:03:11.743Z,14.93
2023-04-19T12:06:16.258Z,16.08
2023-04-19T12:09:24.068Z,16.63
2023-04-19T12:12:34.623Z,19.73
2023-04-19T12:15:43.667Z,17.80
2023-04-19T12:18:49.853Z,18.37
2023-04-19T12:21:52.656Z,21.37
2023-04-19T12:24:55.977Z,19.75
2023-04-19T12:28:00.290Z,19.35
2023-04-19T12:31:03.219Z,18.87
2023-04-19T12:34:05.919Z,24.45
2023-04-19T12:37:08.490Z,17.55
2023-04-19T12:40:12.416Z,20.03
2023-04-19T12:43:16.464Z,19.97
2023-04-19T12:46:19.262Z,21.97
2023-04-19T12:49:22.275Z,20.85
2023-04-19T12:52:25.302Z,23.80
2023-04-19T12:55:28.278Z,18.50
2023-04-19T12:58:32.316Z,20.88
2023-04-19T13:01:35.192Z,21.07
2023-04-19T13:04:37.948Z,18.90
2023-04-19T13:07:40.872Z,20.20
2023-04-19T13:10:43.501Z,15.75
2023-04-19T13:13:47.490Z,17.17
2023-04-19T13:16:50.263Z,20.83
2023-04-19T13:19:52.952Z,18.58
2023-04-19T13:22:55.834Z,20.77
2023-04-19T13:25:58.632Z,15.90
2023-04-19T13:29:02.648Z,18.63
2023-04-19T13:32:07.565Z,15.87
2023-04-19T13:35:10.991Z,14.37
2023-04-19T13:38:13.719Z,13.93
2023-04-19T13:41:16.341Z,13.02
2023-04-19T13:44:20.316Z,13.43
2023-04-19T13:47:23.026Z,13.73
2023-04-19T13:50:25.676Z,17.48
2023-04-19T13:53:29.535Z,13.63
2023-04-19T13:56:32.241Z,11.93
2023-04-19T13:59:36.343Z,11.95
2023-04-19T14:02:39.443Z,11.70
2023-04-19T14:05:42.199Z,11.07
2023-04-19T14:08:44.960Z,12.33
2023-04-19T14:11:48.893Z,11.80
2023-04-19T14:14:52.857Z,11.37
2023-04-19T14:17:55.707Z,9.60
2023-04-19T14:20:58.534Z,9.02
2023-04-19T14:24:01.428Z,8.85
2023-04-19T14:27:11.213Z,13.50
2023-04-19T14:30:16.157Z,9.60
2023-04-19T14:33:18.924Z,8.97
2023-04-19T14:36:21.609Z,9.43
2023-04-19T14:39:24.151Z,9.45
2023-04-19T14:42:26.859Z,8.57
2023-04-19T14:45:31.067Z,7.38
2023-04-19T14:48:33.790Z,10.03
2023-04-19T14:51:36.653Z,11.85
2023-04-19T14:54:39.362Z,8.55
2023-04-19T14:57:42.293Z,9.55
2023-04-19T15:00:46.451Z,19.90
2023-04-19T15:03:49.728Z,12.43
2023-04-19T15:06:52.547Z,12.07
2023-04-19T15:09:55.255Z,9.43
2023-04-19T15:12:57.972Z,9.18
2023-04-19T15:16:03.784Z,9.73
2023-04-19T15:19:07.498Z,11.67
2023-04-19T15:22:10.370Z,9.83
2023-04-19T15:25:12.996Z,9.85
2023-04-19T15:28:15.728Z,12.98
2023-04-19T15:31:19.904Z,12.48
2023-04-19T15:34:22.565Z,14.37
2023-04-19T15:37:25.579Z,10.27
2023-04-19T15:40:29.973Z,11.43
2023-04-19T15:43:32.634Z,10.77
2023-04-19T15:46:36.759Z,12.90
2023-04-19T15:49:40.600Z,9.40
2023-04-19T15:52:43.167Z,8.60
2023-04-19T15:55:46.924Z,9.57
2023-04-19T15:58:49.525Z,7.43
2023-04-19T16:01:53.621Z,7.10
2023-04-19T16:04:56.366Z,9.43
2023-04-19T16:08:03.492Z,9.48
2023-04-19T16:11:06.896Z,12.20
2023-04-19T16:17:13.324Z,10.23
2023-04-19T16:20:15.896Z,8.80
2023-04-19T16:23:18.490Z,9.98
2023-04-19T16:26:22.169Z,10.40
2023-04-19T16:29:24.897Z,10.90
2023-04-19T16:32:29.048Z,8.18
2023-04-19T16:35:31.799Z,11.43
2023-04-19T16:38:34.428Z,10.00
2023-04-19T16:41:37.055Z,8.68
2023-04-19T16:44:39.599Z,10.02
2023-04-19T16:47:45.893Z,7.97
2023-04-19T16:50:49.703Z,8.53
2023-04-19T16:53:53.135Z,12.20
2023-04-19T16:56:55.763Z,8.83
2023-04-19T16:59:58.510Z,8.43
2023-04-19T17:03:02.675Z,7.43
2023-04-19T17:06:05.694Z,8.40
2023-04-19T17:09:08.355Z,7.80
2023-04-19T17:12:11.668Z,8.90
2023-04-19T17:15:14.307Z,9.25
2023-04-19T17:18:18.647Z,11.40
2023-04-19T17:21:21.256Z,16.10
2023-04-19T17:24:24.093Z,8.18
2023-04-19T17:27:26.612Z,9.02
2023-04-19T17:30:29.264Z,8.45
2023-04-19T17:33:33.278Z,7.65
2023-04-19T17:36:35.832Z,9.07
2023-04-19T17:39:38.316Z,6.95
2023-04-19T17:42:40.841Z,11.67
2023-04-19T17:45:43.457Z,10.87
2023-04-19T17:48:47.468Z,11.98
2023-04-19T17:51:50.192Z,18.97
2023-04-19T17:54:52.767Z,20.45
2023-04-19T17:57:55.563Z,6.93
2023-04-19T18:00:58.039Z,14.38
2023-04-19T18:04:02.052Z,6.50
2023-04-19T18:07:04.878Z,7.47
2023-04-19T18:10:08.284Z,6.68
2023-04-19T18:13:11.069Z,3.45
2023-04-19T18:16:13.909Z,3.03
2023-04-19T18:19:17.915Z,2.83
2023-04-19T18:22:20.853Z,3.67
2023-04-19T18:25:23.628Z,1.55
2023-04-19T18:28:26.239Z,3.47
2023-04-19T18:31:31.346Z,2.80
2023-04-19T18:34:35.746Z,3.70
2023-04-19T18:37:38.509Z,5.43
2023-04-19T18:40:41.284Z,2.25
2023-04-19T18:43:59.550Z,5.47
2023-04-19T18:47:07.113Z,2.97
2023-04-19T18:50:12.042Z,2.50
2023-04-19T18:53:14.684Z,2.13
2023-04-19T18:56:17.203Z,3.37
2023-04-19T18:59:21.033Z,4.70
2023-04-19T19:02:23.868Z,3.60
2023-04-19T19:05:28.740Z,5.95
2023-04-19T19:08:31.687Z,3.50
2023-04-19T19:11:52.021Z,2.92
2023-04-19T19:14:56.973Z,2.63
2023-04-19T19:17:59.540Z,4.30
2023-04-19T19:21:03.457Z,6.07
2023-04-19T19:24:06.709Z,5.17
2023-04-19T19:27:09.514Z,4.80
2023-04-19T19:30:12.997Z,4.43
2023-04-19T19:33:16.353Z,4.53
2023-04-19T19:36:20.452Z,2.95
2023-04-19T19:39:23.109Z,5.57
2023-04-19T19:42:25.783Z,4.33
2023-04-19T19:45:28.767Z,5.07
2023-04-19T19:48:36.949Z,5.88
2023-04-19T19:51:57.843Z,4.17
2023-04-19T19:55:01.863Z,5.17
2023-04-19T20:01:11.223Z,3.53
2023-04-19T20:04:14.043Z,6.10
2023-04-19T20:07:36.823Z,6.20
2023-04-19T20:10:42.901Z,7.73
2023-04-19T20:13:45.726Z,4.70
2023-04-19T20:16:48.701Z,3.85
2023-04-19T20:19:52.144Z,4.00
2023-04-19T20:22:56.178Z,4.53
2023-04-19T20:25:59.784Z,3.27
2023-04-19T20:29:02.674Z,7.10
2023-04-19T20:32:05.679Z,5.70
2023-04-19T20:35:11.958Z,4.53
2023-04-19T20:38:16.146Z,7.87
2023-04-19T20:41:19.291Z,7.37
2023-04-19T20:44:22.865Z,9.05
2023-04-19T20:47:25.698Z,5.90
2023-04-19T20:50:28.292Z,8.57
2023-04-19T20:53:32.212Z,5.63
2023-04-19T20:56:34.834Z,10.50
2023-04-19T20:59:37.376Z,9.93
2023-04-19T21:02:40.100Z,16.13
2023-04-19T21:05:42.786Z,5.63
2023-04-19T21:08:46.763Z,5.20
2023-04-19T21:11:49.442Z,9.90
2023-04-19T21:14:52.869Z,15.77
2023-04-19T21:17:55.471Z,17.40
2023-04-19T21:20:58.109Z,5.90
2023-04-19T21:24:02.089Z,5.20
2023-04-19T21:27:05.136Z,7.63
2023-04-19T21:30:09.183Z,7.88
2023-04-19T21:33:12.005Z,5.03
2023-04-19T21:36:14.563Z,6.28
2023-04-19T21:39:18.784Z,7.73
2023-04-19T21:42:22.148Z,6.83
2023-04-19T21:45:25.026Z,6.80
2023-04-19T21:48:27.671Z,5.25
2023-04-19T21:51:30.257Z,6.87
2023-04-19T21:54:34.859Z,7.43
2023-04-19T21:57:38.301Z,8.67
2023-04-19T22:00:41.245Z,7.22
2023-04-19T22:03:45.525Z,5.40
2023-04-19T22:06:48.251Z,6.20
2023-04-19T22:09:52.275Z,7.03
2023-04-19T22:12:58.675Z,5.20
2023-04-19T22:16:02.405Z,5.50
2023-04-19T22:19:05.357Z,5.72
2023-04-19T22:22:07.948Z,4.47
2023-04-19T22:25:12.030Z,6.03
2023-04-19T22:28:14.617Z,3.67
2023-04-19T22:31:17.120Z,8.03
2023-04-19T22:34:19.662Z,5.63
2023-04-19T22:37:22.251Z,5.50
2023-04-19T22:40:26.253Z,6.67
2023-04-19T22:43:28.877Z,5.93
2023-04-19T22:46:32.911Z,6.73
2023-04-19T22:49:35.568Z,6.60
2023-04-19T22:52:38.388Z,8.03
2023-04-19T22:55:42.732Z,3.93
2023-04-19T22:58:45.367Z,4.80
2023-04-19T23:01:48.053Z,7.03
2023-04-19T23:04:50.917Z,5.80
2023-04-19T23:07:53.457Z,8.47
2023-04-19T23:10:57.485Z,4.17
2023-04-19T23:14:00.032Z,4.20
2023-04-19T23:17:03.100Z,5.27
2023-04-19T23:20:09.442Z,8.63
2023-04-19T23:23:11.978Z,5.57
2023-04-19T23:26:15.994Z,3.53
2023-04-19T23:29:18.790Z,5.77
2023-04-19T23:32:21.623Z,6.75
2023-04-19T23:35:24.367Z,7.97
2023-04-19T23:38:26.928Z,9.73
2023-04-19T23:41:30.797Z,6.50
2023-04-19T23:47:35.847Z,3.80
2023-04-19T23:50:38.327Z,6.20
2023-04-19T23:53:41.213Z,5.27
2023-04-19T23:56:45.359Z,7.68
2023-04-19T23:59:47.918Z,4.53
